createdAt,value
2019-05-19T00:00:31.326Z,19.60
2019-05-19T00:03:00.668Z,23.17
2019-05-19T00:05:30.041Z,19.80
2019-05-19T00:07:59.329Z,20.23
2019-05-19T00:10:28.696Z,18.67
2019-05-19T00:12:57.978Z,21.10
2019-05-19T00:15:27.482Z,18.70
2019-05-19T00:17:56.885Z,18.97
2019-05-19T00:20:26.170Z,18.97
2019-05-19T00:22:55.509Z,19.93
2019-05-19T00:25:24.970Z,22.47
2019-05-19T00:27:54.332Z,18.53
2019-05-19T00:30:23.754Z,20.70
2019-05-19T00:32:53.058Z,20.77
2019-05-19T00:35:22.399Z,20.40
2019-05-19T00:37:51.841Z,20.27
2019-05-19T00:40:21.150Z,18.80
2019-05-19T00:42:50.438Z,18.60
2019-05-19T00:45:20.094Z,19.20
2019-05-19T00:47:49.413Z,21.00
2019-05-19T00:50:18.690Z,21.23
2019-05-19T00:52:48.086Z,18.57
2019-05-19T00:55:17.433Z,19.90
2019-05-19T00:57:47.116Z,22.80
2019-05-19T01:00:16.918Z,20.00
2019-05-19T01:02:46.246Z,22.17
2019-05-19T01:05:15.530Z,20.70
2019-05-19T01:07:44.805Z,20.97
2019-05-19T01:10:15.014Z,19.87
2019-05-19T01:12:44.387Z,21.20
2019-05-19T01:15:13.984Z,19.80
2019-05-19T01:17:43.540Z,20.60
2019-05-19T01:20:13.337Z,19.50
2019-05-19T01:22:42.720Z,19.83
2019-05-19T01:25:13.424Z,21.80
2019-05-19T01:27:42.859Z,20.27
2019-05-19T01:30:12.853Z,21.00
2019-05-19T01:32:42.143Z,19.57
2019-05-19T01:35:11.621Z,21.00
2019-05-19T01:37:41.062Z,19.87
2019-05-19T01:40:11.302Z,21.57
2019-05-19T01:42:40.590Z,23.23
2019-05-19T01:45:10.877Z,20.83
2019-05-19T01:47:40.201Z,19.27
2019-05-19T01:50:18.525Z,23.73
2019-05-19T01:52:42.345Z,22.77
2019-05-19T01:55:12.727Z,22.93
2019-05-19T01:57:42.067Z,19.87
2019-05-19T02:00:11.573Z,26.53
2019-05-19T02:02:40.866Z,23.67
2019-05-19T02:05:10.135Z,22.33
2019-05-19T02:07:39.519Z,21.80
2019-05-19T02:10:09.297Z,22.30
2019-05-19T02:12:38.718Z,19.17
2019-05-19T02:15:08.509Z,20.77
2019-05-19T02:17:37.823Z,18.90
2019-05-19T02:20:07.548Z,20.03
2019-05-19T02:22:36.829Z,20.73
2019-05-19T02:25:06.583Z,25.00
2019-05-19T02:27:35.933Z,20.43
2019-05-19T02:30:05.818Z,26.23
2019-05-19T02:32:35.191Z,24.80
2019-05-19T02:35:04.835Z,21.27
2019-05-19T02:37:34.117Z,20.37
2019-05-19T02:40:03.458Z,21.10
2019-05-19T02:42:35.362Z,22.03
2019-05-19T02:45:05.010Z,24.70
2019-05-19T02:47:35.514Z,19.33
2019-05-19T02:50:05.547Z,20.37
2019-05-19T02:52:35.619Z,22.80
2019-05-19T02:55:05.889Z,23.77
2019-05-19T02:57:36.815Z,21.70
2019-05-19T03:00:07.653Z,23.53
2019-05-19T03:02:36.924Z,22.87
2019-05-19T03:05:06.756Z,19.77
2019-05-19T03:07:36.142Z,23.53
2019-05-19T03:10:06.353Z,22.57
2019-05-19T03:12:35.754Z,23.87
2019-05-19T03:15:05.579Z,20.33
2019-05-19T03:17:34.919Z,22.30
2019-05-19T03:20:04.237Z,20.77
2019-05-19T03:22:33.599Z,23.80
2019-05-19T03:25:02.874Z,22.23
2019-05-19T03:27:32.231Z,23.13
2019-05-19T03:30:20.554Z,21.87
2019-05-19T03:32:56.808Z,25.47
2019-05-19T03:35:26.174Z,22.00
2019-05-19T03:37:55.542Z,22.07
2019-05-19T03:40:24.862Z,21.23
2019-05-19T03:42:54.225Z,22.80
2019-05-19T03:45:23.576Z,22.37
2019-05-19T03:47:52.873Z,21.90
2019-05-19T03:50:22.228Z,23.07
2019-05-19T03:52:51.518Z,20.87
2019-05-19T03:55:20.838Z,23.77
2019-05-19T03:57:50.207Z,20.53
2019-05-19T04:00:20.170Z,20.47
2019-05-19T04:02:49.487Z,21.33
2019-05-19T04:05:18.823Z,21.23
2019-05-19T04:07:48.114Z,23.37
2019-05-19T04:10:18.336Z,20.60
2019-05-19T04:12:47.600Z,22.30
2019-05-19T04:15:17.086Z,25.27
2019-05-19T04:17:46.369Z,25.57
2019-05-19T04:20:15.747Z,21.70
2019-05-19T04:22:45.043Z,21.07
2019-05-19T04:25:14.422Z,21.87
2019-05-19T04:27:43.926Z,23.43
2019-05-19T04:30:13.331Z,21.73
2019-05-19T04:32:42.613Z,21.67
2019-05-19T04:35:12.102Z,23.43
2019-05-19T04:37:41.465Z,18.23
2019-05-19T04:40:11.421Z,21.73
2019-05-19T04:42:40.769Z,21.57
2019-05-19T04:45:10.248Z,25.30
2019-05-19T04:47:39.594Z,21.67
2019-05-19T04:50:09.065Z,23.63
2019-05-19T04:52:38.531Z,26.43
2019-05-19T04:55:08.115Z,31.97
2019-05-19T04:57:37.819Z,25.10
2019-05-19T05:00:07.481Z,31.40
2019-05-19T05:02:36.792Z,30.13
2019-05-19T05:05:06.538Z,41.37
2019-05-19T05:07:35.846Z,31.00
2019-05-19T05:10:05.447Z,34.07
2019-05-19T05:12:34.747Z,34.20
2019-05-19T05:15:04.169Z,33.70
2019-05-19T05:17:33.532Z,31.53
2019-05-19T05:20:02.879Z,31.47
2019-05-19T05:22:32.166Z,34.83
2019-05-19T05:25:01.483Z,34.80
2019-05-19T05:27:30.830Z,33.60
2019-05-19T05:30:00.118Z,32.10
2019-05-19T05:32:29.454Z,36.63
2019-05-19T05:34:58.737Z,26.03
2019-05-19T05:37:28.015Z,30.73
2019-05-19T05:39:57.325Z,26.83
2019-05-19T05:42:26.602Z,27.77
2019-05-19T05:44:55.895Z,31.40
2019-05-19T05:47:25.249Z,30.17
2019-05-19T05:49:54.558Z,29.40
2019-05-19T05:52:37.474Z,37.67
2019-05-19T05:54:54.914Z,32.43
2019-05-19T05:57:24.272Z,32.60
2019-05-19T05:59:53.602Z,43.13
2019-05-19T06:02:22.953Z,36.23
2019-05-19T06:04:52.291Z,35.20
2019-05-19T06:07:21.660Z,28.33
2019-05-19T06:09:51.109Z,30.90
2019-05-19T06:12:20.437Z,27.53
2019-05-19T06:14:49.755Z,41.30
2019-05-19T06:17:19.048Z,28.60
2019-05-19T06:19:48.338Z,22.77
2019-05-19T06:22:17.704Z,15.93
2019-05-19T06:24:47.503Z,16.20
2019-05-19T06:27:16.833Z,20.20
2019-05-19T06:29:46.189Z,14.00
2019-05-19T06:32:27.983Z,15.17
2019-05-19T06:34:57.265Z,16.50
2019-05-19T06:37:26.563Z,14.93
2019-05-19T06:39:55.923Z,16.47
2019-05-19T06:42:25.238Z,13.50
2019-05-19T06:44:54.509Z,14.70
2019-05-19T06:47:23.922Z,14.67
2019-05-19T06:49:53.252Z,11.80
2019-05-19T06:52:22.604Z,11.77
2019-05-19T06:54:51.982Z,17.27
2019-05-19T06:57:21.299Z,11.77
2019-05-19T06:59:50.586Z,13.47
2019-05-19T07:02:20.176Z,13.37
2019-05-19T07:04:49.512Z,13.07
2019-05-19T07:07:18.786Z,14.23
2019-05-19T07:09:57.874Z,12.17
2019-05-19T07:12:19.098Z,14.07
2019-05-19T07:14:48.385Z,10.47
2019-05-19T07:17:19.306Z,9.70
2019-05-19T07:19:48.586Z,12.73
2019-05-19T07:22:17.873Z,9.73
2019-05-19T07:24:47.305Z,13.17
2019-05-19T07:27:16.585Z,10.37
2019-05-19T07:29:46.057Z,10.90
2019-05-19T07:32:15.401Z,15.17
2019-05-19T07:34:44.755Z,10.87
2019-05-19T07:37:14.062Z,12.20
2019-05-19T07:39:43.486Z,15.23
2019-05-19T07:42:12.794Z,16.80
2019-05-19T07:44:45.205Z,15.90
2019-05-19T07:47:13.175Z,13.77
2019-05-19T07:49:42.583Z,12.37
2019-05-19T07:52:11.921Z,12.20
2019-05-19T07:54:41.231Z,10.20
2019-05-19T07:57:10.508Z,12.87
2019-05-19T07:59:39.783Z,12.50
2019-05-19T08:02:09.129Z,10.70
2019-05-19T08:04:38.489Z,11.73
2019-05-19T08:07:07.803Z,12.93
2019-05-19T08:09:37.179Z,12.27
2019-05-19T08:12:06.542Z,12.37
2019-05-19T08:14:35.827Z,10.73
2019-05-19T08:17:05.234Z,12.17
2019-05-19T08:19:34.552Z,12.00
2019-05-19T08:22:03.829Z,10.47
2019-05-19T08:24:33.185Z,10.60
2019-05-19T08:27:02.510Z,18.07
2019-05-19T08:29:31.852Z,13.80
2019-05-19T08:32:01.246Z,13.17
2019-05-19T08:34:30.537Z,11.40
2019-05-19T08:36:59.814Z,10.97
2019-05-19T08:39:29.175Z,12.50
2019-05-19T08:41:58.483Z,9.77
2019-05-19T08:44:27.793Z,11.33
2019-05-19T08:46:57.071Z,12.53
2019-05-19T08:49:26.437Z,10.37
2019-05-19T08:51:55.801Z,8.10
2019-05-19T08:54:25.163Z,10.70
2019-05-19T08:56:54.457Z,11.13
2019-05-19T08:59:23.745Z,10.37
2019-05-19T09:01:53.054Z,12.00
2019-05-19T09:04:22.390Z,9.70
2019-05-19T09:06:52.074Z,12.03
2019-05-19T09:09:21.346Z,15.60
2019-05-19T09:11:50.678Z,9.87
2019-05-19T09:14:19.969Z,10.23
2019-05-19T09:16:49.276Z,7.97
2019-05-19T09:19:18.785Z,9.37
2019-05-19T09:21:48.135Z,6.93
2019-05-19T09:24:29.499Z,6.93
2019-05-19T09:26:48.504Z,7.67
2019-05-19T09:29:17.865Z,7.67
2019-05-19T09:31:47.154Z,7.97
2019-05-19T09:34:16.488Z,10.60
2019-05-19T09:36:45.766Z,8.80
2019-05-19T09:39:15.106Z,10.77
2019-05-19T09:41:44.513Z,10.43
2019-05-19T09:44:13.786Z,9.00
2019-05-19T09:46:43.050Z,9.23
2019-05-19T09:49:30.224Z,10.13
2019-05-19T09:51:59.717Z,10.97
2019-05-19T09:54:29.377Z,9.10
2019-05-19T09:56:58.719Z,9.67
2019-05-19T09:59:28.425Z,7.70
2019-05-19T10:01:57.700Z,12.30
2019-05-19T10:04:27.062Z,8.97
2019-05-19T10:06:56.495Z,9.40
2019-05-19T10:09:57.601Z,7.73
2019-05-19T10:12:27.041Z,8.57
2019-05-19T10:14:56.421Z,9.40
2019-05-19T10:17:25.714Z,8.97
2019-05-19T10:19:55.013Z,8.30
2019-05-19T10:22:24.402Z,8.47
2019-05-19T10:25:09.871Z,7.43
2019-05-19T10:27:24.759Z,9.13
2019-05-19T10:29:56.202Z,5.30
2019-05-19T10:32:25.494Z,8.97
2019-05-19T10:34:54.837Z,6.67
2019-05-19T10:37:24.129Z,5.20
2019-05-19T10:39:53.517Z,5.67
2019-05-19T10:42:22.836Z,6.27
2019-05-19T10:44:52.316Z,6.27
2019-05-19T10:47:21.709Z,5.97
2019-05-19T10:49:51.081Z,9.70
2019-05-19T10:52:20.538Z,9.07
2019-05-19T10:54:49.946Z,4.77
2019-05-19T10:57:19.345Z,4.37
2019-05-19T10:59:48.702Z,3.97
2019-05-19T11:02:18.029Z,4.17
2019-05-19T11:04:47.345Z,4.53
2019-05-19T11:07:16.741Z,8.10
2019-05-19T11:09:46.016Z,5.20
2019-05-19T11:12:15.414Z,5.93
2019-05-19T11:14:44.690Z,5.73
2019-05-19T11:17:13.967Z,5.00
2019-05-19T11:19:43.367Z,5.57
2019-05-19T11:22:12.719Z,5.50
2019-05-19T11:24:42.133Z,6.63
2019-05-19T11:27:11.689Z,5.63
2019-05-19T11:29:40.961Z,6.87
2019-05-19T11:32:10.278Z,5.77
2019-05-19T11:34:39.569Z,6.50
2019-05-19T11:37:08.875Z,7.10
2019-05-19T11:39:38.515Z,5.97
2019-05-19T11:42:07.915Z,10.87
2019-05-19T11:44:37.241Z,8.30
2019-05-19T11:47:06.541Z,8.33
2019-05-19T11:49:35.912Z,8.63
2019-05-19T11:52:05.263Z,6.10
2019-05-19T11:54:34.650Z,4.93
2019-05-19T11:57:03.963Z,5.33
2019-05-19T11:59:33.340Z,4.13
2019-05-19T12:02:02.626Z,7.60
2019-05-19T12:04:31.909Z,5.90
2019-05-19T12:07:01.246Z,7.00
2019-05-19T12:09:30.610Z,4.00
2019-05-19T12:11:59.982Z,5.60
2019-05-19T12:14:29.287Z,4.73
2019-05-19T12:16:58.873Z,4.77
2019-05-19T12:19:28.407Z,5.33
2019-05-19T12:21:57.704Z,4.03
2019-05-19T12:24:27.014Z,5.77
2019-05-19T12:26:56.289Z,4.90
2019-05-19T12:29:25.606Z,4.87
2019-05-19T12:31:54.881Z,4.67
2019-05-19T12:34:24.279Z,8.03
2019-05-19T12:36:53.932Z,4.03
2019-05-19T12:39:23.559Z,7.27
2019-05-19T12:41:52.955Z,3.63
2019-05-19T12:44:22.382Z,4.67
2019-05-19T12:46:51.665Z,4.60
2019-05-19T12:49:20.935Z,4.17
2019-05-19T12:51:50.306Z,6.00
2019-05-19T12:54:19.668Z,3.73
2019-05-19T12:56:48.970Z,4.73
2019-05-19T12:59:18.346Z,4.47
2019-05-19T13:01:47.640Z,5.70
2019-05-19T13:04:17.094Z,6.53
2019-05-19T13:06:46.384Z,6.63
2019-05-19T13:09:15.774Z,5.70
2019-05-19T13:11:45.055Z,4.17
2019-05-19T13:14:14.362Z,5.40
2019-05-19T13:16:43.658Z,6.03
2019-05-19T13:19:12.938Z,9.07
2019-05-19T13:21:42.238Z,9.27
2019-05-19T13:24:11.604Z,12.00
2019-05-19T13:26:55.611Z,90.23
2019-05-19T13:29:11.951Z,52.77
2019-05-19T13:31:41.220Z,35.10
2019-05-19T13:34:10.521Z,35.93
2019-05-19T13:36:40.501Z,26.03
2019-05-19T13:39:09.934Z,124.53
2019-05-19T13:41:39.225Z,135.37
2019-05-19T13:44:08.533Z,38.07
2019-05-19T13:46:37.840Z,142.33
2019-05-19T13:49:07.193Z,46.83
2019-05-19T13:51:36.552Z,14.40
2019-05-19T13:54:24.894Z,35.83
2019-05-19T13:56:54.198Z,22.63
2019-05-19T13:59:23.489Z,21.17
2019-05-19T14:01:52.781Z,19.93
2019-05-19T14:04:22.117Z,12.17
2019-05-19T14:06:51.510Z,36.17
2019-05-19T14:09:20.829Z,21.33
2019-05-19T14:11:50.238Z,30.23
2019-05-19T14:14:19.509Z,26.03
2019-05-19T14:16:48.797Z,29.57
2019-05-19T14:19:18.282Z,17.10
2019-05-19T14:21:47.567Z,12.90
2019-05-19T14:24:16.913Z,8.27
2019-05-19T14:26:46.250Z,6.13
2019-05-19T14:29:15.530Z,8.17
2019-05-19T14:31:44.839Z,10.90
2019-05-19T14:34:14.181Z,8.13
2019-05-19T14:36:43.529Z,8.40
2019-05-19T14:39:12.830Z,7.37
2019-05-19T14:41:46.918Z,7.90
2019-05-19T14:44:35.303Z,14.77
2019-05-19T14:47:04.596Z,8.90
2019-05-19T14:49:33.942Z,9.27
2019-05-19T14:52:03.297Z,10.20
2019-05-19T14:54:32.624Z,15.77
2019-05-19T14:57:01.975Z,9.97
2019-05-19T14:59:31.322Z,8.17
2019-05-19T15:02:00.643Z,12.00
2019-05-19T15:04:29.938Z,7.83
2019-05-19T15:06:59.210Z,9.37
2019-05-19T15:09:28.517Z,7.30
2019-05-19T15:11:57.798Z,12.37
2019-05-19T15:14:27.096Z,7.73
2019-05-19T15:16:56.482Z,7.93
2019-05-19T15:19:25.855Z,9.63
2019-05-19T15:21:55.174Z,10.33
2019-05-19T15:24:24.500Z,6.67
2019-05-19T15:26:53.846Z,6.03
2019-05-19T15:29:23.233Z,9.10
2019-05-19T15:31:52.513Z,6.70
2019-05-19T15:34:21.801Z,6.57
2019-05-19T15:36:51.105Z,6.33
2019-05-19T15:39:20.393Z,7.30
2019-05-19T15:41:49.762Z,6.17
2019-05-19T15:44:19.083Z,8.30
2019-05-19T15:46:48.518Z,8.87
2019-05-19T15:49:17.838Z,9.77
2019-05-19T15:52:00.940Z,7.13
2019-05-19T15:54:18.140Z,7.47
2019-05-19T15:56:47.588Z,7.27
2019-05-19T15:59:16.876Z,9.87
2019-05-19T16:01:46.230Z,8.03
2019-05-19T16:04:15.814Z,7.73
2019-05-19T16:06:45.099Z,7.83
2019-05-19T16:09:14.480Z,7.63
2019-05-19T16:11:43.807Z,8.03
2019-05-19T16:14:13.142Z,7.53
2019-05-19T16:16:42.442Z,5.90
2019-05-19T16:19:11.812Z,5.40
2019-05-19T16:21:41.168Z,5.53
2019-05-19T16:24:10.522Z,7.07
2019-05-19T16:26:39.878Z,5.83
2019-05-19T16:29:09.225Z,8.77
2019-05-19T16:31:38.517Z,6.03
2019-05-19T16:34:07.846Z,5.77
2019-05-19T16:36:37.119Z,8.20
2019-05-19T16:39:07.439Z,5.97
2019-05-19T16:41:36.790Z,6.23
2019-05-19T16:44:06.177Z,5.83
2019-05-19T16:46:35.478Z,7.37
2019-05-19T16:49:04.853Z,6.20
2019-05-19T16:51:34.140Z,52.13
2019-05-19T16:54:07.245Z,34.07
2019-05-19T16:56:36.556Z,26.10
2019-05-19T16:59:05.873Z,10.20
2019-05-19T17:01:35.184Z,7.80
2019-05-19T17:04:04.537Z,7.07
2019-05-19T17:06:34.085Z,7.40
2019-05-19T17:09:03.659Z,8.67
2019-05-19T17:11:33.013Z,11.07
2019-05-19T17:14:02.767Z,14.40
2019-05-19T17:16:32.082Z,27.30
2019-05-19T17:19:01.505Z,33.50
2019-05-19T17:21:30.966Z,30.93
2019-05-19T17:24:00.331Z,21.40
2019-05-19T17:26:29.754Z,29.67
2019-05-19T17:29:00.970Z,31.53
2019-05-19T17:31:30.246Z,28.17
2019-05-19T17:33:59.528Z,16.90
2019-05-19T17:36:28.874Z,10.10
2019-05-19T17:38:58.174Z,7.47
2019-05-19T17:41:27.488Z,11.33
2019-05-19T17:43:56.797Z,8.27
2019-05-19T17:46:26.163Z,9.57
2019-05-19T17:48:56.251Z,9.03
2019-05-19T17:51:25.571Z,8.23
2019-05-19T17:53:54.846Z,8.03
2019-05-19T17:56:25.018Z,9.13
2019-05-19T17:58:54.634Z,7.60
2019-05-19T18:01:23.960Z,9.03
2019-05-19T18:03:53.309Z,7.10
2019-05-19T18:06:22.688Z,5.67
2019-05-19T18:08:51.958Z,6.33
2019-05-19T18:11:21.225Z,6.87
2019-05-19T18:13:50.554Z,7.33
2019-05-19T18:16:23.215Z,9.23
2019-05-19T18:18:52.584Z,15.47
2019-05-19T18:21:21.891Z,7.33
2019-05-19T18:23:51.154Z,6.67
2019-05-19T18:26:20.426Z,11.70
2019-05-19T18:28:49.702Z,8.50
2019-05-19T18:31:19.175Z,6.50
2019-05-19T18:33:48.513Z,7.13
2019-05-19T18:36:17.825Z,6.43
2019-05-19T18:38:47.105Z,6.50
2019-05-19T18:41:16.514Z,7.90
2019-05-19T18:43:48.111Z,7.60
2019-05-19T18:46:17.401Z,6.43
2019-05-19T18:48:46.675Z,5.80
2019-05-19T18:51:16.000Z,7.77
2019-05-19T18:53:45.305Z,5.10
2019-05-19T18:56:14.649Z,10.27
2019-05-19T18:58:43.933Z,5.47
2019-05-19T19:01:13.330Z,8.87
2019-05-19T19:03:42.972Z,8.17
2019-05-19T19:06:12.234Z,6.73
2019-05-19T19:08:41.738Z,6.87
2019-05-19T19:11:11.010Z,6.63
2019-05-19T19:13:40.290Z,4.87
2019-05-19T19:16:09.871Z,6.70
2019-05-19T19:18:40.366Z,6.30
2019-05-19T19:21:09.846Z,6.17
2019-05-19T19:23:39.174Z,10.00
2019-05-19T19:26:08.466Z,6.77
2019-05-19T19:28:37.861Z,9.23
2019-05-19T19:31:07.226Z,6.53
2019-05-19T19:33:36.579Z,7.70
2019-05-19T19:36:06.131Z,11.37
2019-05-19T19:38:35.506Z,6.33
2019-05-19T19:41:04.977Z,10.30
2019-05-19T19:43:34.284Z,8.00
2019-05-19T19:46:03.605Z,6.97
2019-05-19T19:48:33.085Z,6.90
2019-05-19T19:51:02.372Z,7.53
2019-05-19T19:53:31.684Z,7.83
2019-05-19T19:56:00.973Z,7.20
2019-05-19T19:58:30.245Z,7.53
2019-05-19T20:00:59.574Z,7.87
2019-05-19T20:03:29.043Z,7.27
2019-05-19T20:05:58.395Z,7.70
2019-05-19T20:08:27.679Z,7.77
2019-05-19T20:10:57.098Z,7.53
2019-05-19T20:13:26.422Z,6.23
2019-05-19T20:15:55.931Z,8.60
2019-05-19T20:18:25.281Z,8.67
2019-05-19T20:20:54.549Z,8.53
2019-05-19T20:23:23.865Z,6.67
2019-05-19T20:25:53.411Z,8.13
2019-05-19T20:28:22.748Z,6.93
2019-05-19T20:30:52.101Z,10.30
2019-05-19T20:33:22.120Z,7.10
2019-05-19T20:35:51.678Z,8.80
2019-05-19T20:38:20.998Z,7.80
2019-05-19T20:40:50.282Z,9.57
2019-05-19T20:43:19.572Z,7.57
2019-05-19T20:45:49.095Z,7.33
2019-05-19T20:48:18.382Z,8.90
2019-05-19T20:50:47.669Z,10.60
2019-05-19T20:53:16.995Z,8.10
2019-05-19T20:55:46.320Z,8.17
2019-05-19T20:58:15.598Z,10.90
2019-05-19T21:00:50.683Z,10.27
2019-05-19T21:03:15.942Z,7.67
2019-05-19T21:05:45.338Z,8.53
2019-05-19T21:08:14.718Z,8.23
2019-05-19T21:10:44.027Z,9.27
2019-05-19T21:13:13.670Z,9.00
2019-05-19T21:15:43.222Z,12.73
2019-05-19T21:18:12.502Z,12.27
2019-05-19T21:20:41.803Z,13.50
2019-05-19T21:23:11.336Z,10.20
2019-05-19T21:25:40.681Z,11.47
2019-05-19T21:28:11.008Z,10.03
2019-05-19T21:30:40.327Z,11.03
2019-05-19T21:33:09.694Z,10.23
2019-05-19T21:35:39.001Z,10.30
2019-05-19T21:38:08.357Z,9.20
2019-05-19T21:40:37.737Z,8.33
2019-05-19T21:43:07.031Z,14.17
2019-05-19T21:45:36.363Z,9.43
2019-05-19T21:48:05.677Z,13.67
2019-05-19T21:50:34.969Z,10.07
2019-05-19T21:53:06.464Z,11.10
2019-05-19T21:55:35.291Z,9.80
2019-05-19T21:58:04.687Z,11.00
2019-05-19T22:00:34.731Z,11.27
2019-05-19T22:03:04.106Z,12.40
2019-05-19T22:05:33.407Z,11.90
2019-05-19T22:08:06.842Z,11.00
2019-05-19T22:10:36.129Z,11.63
2019-05-19T22:13:05.424Z,11.13
2019-05-19T22:15:34.750Z,12.73
2019-05-19T22:18:04.111Z,11.80
2019-05-19T22:20:33.390Z,13.07
2019-05-19T22:23:02.738Z,11.10
2019-05-19T22:25:32.082Z,13.30
2019-05-19T22:28:01.456Z,10.10
2019-05-19T22:30:30.790Z,10.80
2019-05-19T22:33:00.135Z,10.17
2019-05-19T22:35:29.497Z,10.87
2019-05-19T22:37:59.071Z,11.47
2019-05-19T22:40:28.354Z,11.47
2019-05-19T22:42:57.650Z,13.60
2019-05-19T22:45:27.022Z,10.83
2019-05-19T22:47:56.343Z,11.43
2019-05-19T22:50:25.647Z,13.27
2019-05-19T22:52:55.034Z,15.30
2019-05-19T22:55:24.318Z,12.87
2019-05-19T22:57:53.586Z,12.50
2019-05-19T23:00:22.997Z,11.87
2019-05-19T23:02:52.277Z,11.23
2019-05-19T23:05:21.954Z,11.43
2019-05-19T23:07:51.319Z,15.17
2019-05-19T23:10:20.858Z,12.90
2019-05-19T23:12:50.154Z,13.17
2019-05-19T23:15:22.099Z,11.17
2019-05-19T23:17:51.381Z,11.77
2019-05-19T23:20:20.664Z,12.03
2019-05-19T23:22:50.043Z,11.53
2019-05-19T23:25:19.362Z,13.67
2019-05-19T23:27:48.740Z,11.97
2019-05-19T23:30:18.206Z,13.03
2019-05-19T23:32:47.494Z,10.93
2019-05-19T23:35:16.774Z,15.20
2019-05-19T23:37:46.123Z,12.47
2019-05-19T23:40:15.498Z,10.33
2019-05-19T23:42:44.785Z,11.20
2019-05-19T23:45:14.385Z,11.83
2019-05-19T23:47:43.702Z,11.37
2019-05-19T23:50:13.286Z,14.27
2019-05-19T23:52:42.624Z,13.10
2019-05-19T23:55:12.311Z,14.03
2019-05-19T23:57:41.594Z,14.73
